Time;durP1;ratioP1;P1;durP2;ratioP2;P2;SDS_P1;SDS_P2;PMS_P1;PMS_P2;Temp;Humidity;BMP_temperature;BMP_pressure;BME280_temperature;BME280_humidity;BME280_pressure;Samples;Min_cycle;Max_cycle;Signal;HPM_P1;HPM_P2
2021/07/18 00:01:13;;;;;;;4.97;3.60;;;18.00;85.00;;;;;;5096695;28;20169;-80
2021/07/18 00:03:39;;;;;;;6.22;4.10;;;18.00;85.30;;;;;;5062219;28;20036;-79
2021/07/18 00:06:04;;;;;;;5.82;4.22;;;18.10;85.40;;;;;;5078673;28;20461;-79
2021/07/18 00:08:31;;;;;;;6.20;4.20;;;18.00;85.40;;;;;;5095662;28;20048;-77
2021/07/18 00:10:57;;;;;;;5.85;4.57;;;17.90;85.50;;;;;;5078192;28;20048;-79
2021/07/18 00:13:23;;;;;;;6.07;4.63;;;17.90;85.70;;;;;;5095450;28;20040;-80
2021/07/18 00:15:49;;;;;;;7.50;5.22;;;17.90;85.80;;;;;;5096712;28;20039;-79
2021/07/18 00:18:15;;;;;;;7.10;4.70;;;18.00;85.90;;;;;;5103225;28;20024;-78
2021/07/18 00:20:42;;;;;;;6.30;4.90;;;17.90;86.00;;;;;;5095176;28;20028;-78
2021/07/18 00:23:09;;;;;;;5.18;4.45;;;17.90;86.00;;;;;;5096891;28;20173;-79
2021/07/18 00:25:36;;;;;;;6.65;4.78;;;17.90;86.10;;;;;;5079562;28;20150;-82
2021/07/18 00:28:02;;;;;;;6.78;4.78;;;17.90;86.30;;;;;;5096689;28;20028;-81
2021/07/18 00:30:28;;;;;;;6.47;5.25;;;17.90;86.30;;;;;;5097266;28;20032;-82
2021/07/18 00:32:55;;;;;;;7.07;5.32;;;17.90;86.50;;;;;;5078669;28;20539;-80
2021/07/18 00:35:21;;;;;;;7.55;5.13;;;17.90;86.50;;;;;;5094335;28;20116;-76
2021/07/18 00:37:47;;;;;;;5.82;5.22;;;17.80;86.60;;;;;;5094125;28;20063;-78
2021/07/18 00:40:13;;;;;;;7.40;4.85;;;17.80;86.70;;;;;;5077126;28;20038;-84
2021/07/18 00:42:39;;;;;;;5.57;4.70;;;17.80;86.70;;;;;;5095262;28;20028;-75
2021/07/18 00:45:07;;;;;;;6.30;5.40;;;17.70;86.90;;;;;;5094046;28;20039;-77
2021/07/18 00:47:35;;;;;;;7.13;6.15;;;17.70;87.10;;;;;;5095739;28;20016;-78
2021/07/18 00:50:07;;;;;;;7.25;5.75;;;17.60;87.40;;;;;;5094268;28;20020;-77
2021/07/18 00:52:33;;;;;;;5.93;5.32;;;17.60;87.60;;;;;;5094507;28;20020;-78
2021/07/18 00:54:59;;;;;;;10.90;5.90;;;17.60;87.60;;;;;;5078454;28;20032;-78
2021/07/18 00:57:25;;;;;;;7.53;5.47;;;17.60;87.70;;;;;;5095937;28;20032;-78
2021/07/18 00:59:51;;;;;;;7.55;5.15;;;17.60;87.70;;;;;;5094652;28;20020;-77
2021/07/18 01:02:17;;;;;;;10.55;5.72;;;17.60;87.80;;;;;;5094662;28;20027;-79
2021/07/18 01:04:43;;;;;;;7.63;6.07;;;17.60;87.90;;;;;;5097974;28;20107;-80
2021/07/18 01:07:09;;;;;;;6.20;5.35;;;17.60;88.10;;;;;;5098950;28;20032;-78
2021/07/18 01:09:35;;;;;;;7.53;5.22;;;17.60;88.20;;;;;;5096820;28;20028;-76
2021/07/18 01:12:01;;;;;;;6.35;5.35;;;17.60;88.20;;;;;;5095927;28;20055;-77
2021/07/18 01:14:27;;;;;;;7.10;4.97;;;17.60;88.20;;;;;;5095034;28;20086;-78
2021/07/18 01:16:53;;;;;;;6.95;5.50;;;17.40;88.30;;;;;;5076783;28;20036;-76
2021/07/18 01:19:20;;;;;;;6.88;5.60;;;17.40;88.70;;;;;;5095204;28;20028;-82
2021/07/18 01:21:56;;;;;;;8.40;5.47;;;17.40;88.90;;;;;;5076879;28;20021;-77
2021/07/18 01:24:22;;;;;;;7.57;5.97;;;17.40;89.10;;;;;;5093397;28;20019;-78
2021/07/18 01:26:48;;;;;;;7.65;5.60;;;17.30;89.10;;;;;;5076410;28;20020;-77
2021/07/18 01:29:14;;;;;;;11.52;6.30;;;17.30;89.10;;;;;;5077001;28;20024;-78
2021/07/18 01:31:40;;;;;;;10.85;5.97;;;17.30;89.10;;;;;;5093980;28;20368;-78
2021/07/18 01:34:05;;;;;;;7.93;5.90;;;17.30;89.30;;;;;;5076441;28;20429;-79
2021/07/18 01:36:31;;;;;;;10.68;6.40;;;17.30;89.40;;;;;;5076618;28;20032;-79
2021/07/18 01:38:57;;;;;;;9.35;5.70;;;17.20;89.50;;;;;;5077132;28;20035;-79
2021/07/18 01:41:22;;;;;;;8.05;5.97;;;17.20;89.70;;;;;;5094183;28;20020;-77
2021/07/18 01:43:48;;;;;;;5.88;5.25;;;17.20;89.80;;;;;;5059823;28;20072;-80
2021/07/18 01:46:14;;;;;;;10.93;6.55;;;17.20;89.80;;;;;;5093260;28;20028;-78
2021/07/18 01:48:41;;;;;;;11.13;6.70;;;17.10;89.90;;;;;;5093297;28;20040;-78
2021/07/18 01:51:07;;;;;;;8.88;6.32;;;17.10;90.00;;;;;;5094531;28;20032;-78
2021/07/18 01:53:33;;;;;;;8.05;5.85;;;17.10;90.10;;;;;;5093277;28;20115;-79
2021/07/18 01:55:58;;;;;;;10.88;6.65;;;17.10;90.10;;;;;;5092742;28;20186;-78
2021/07/18 01:58:28;;;;;;;9.15;6.53;;;17.10;90.10;;;;;;5093920;28;20052;-79
2021/07/18 02:00:55;;;;;;;9.15;6.65;;;17.10;90.30;;;;;;5092912;28;20024;-80
2021/07/18 02:03:20;;;;;;;10.07;6.85;;;17.00;90.30;;;;;;5076477;28;20379;-82
2021/07/18 02:05:46;;;;;;;8.90;6.47;;;17.00;90.40;;;;;;5076076;28;20025;-80
2021/07/18 02:08:11;;;;;;;11.57;6.30;;;17.00;90.40;;;;;;5092325;28;20032;-80
2021/07/18 02:10:37;;;;;;;8.98;6.95;;;17.00;90.40;;;;;;5094150;28;20039;-81
2021/07/18 02:13:05;;;;;;;10.00;6.93;;;17.00;90.50;;;;;;5076065;28;20498;-80
2021/07/18 02:15:30;;;;;;;10.60;7.28;;;17.00;90.60;;;;;;5094218;28;20045;-79
2021/07/18 02:17:57;;;;;;;10.13;7.07;;;17.00;90.70;;;;;;5076230;28;20464;-79
2021/07/18 02:20:23;;;;;;;8.98;6.70;;;17.00;90.70;;;;;;5093772;28;20064;-85
2021/07/18 02:22:55;;;;;;;8.63;6.53;;;17.00;90.70;;;;;;5059104;28;20040;-80
2021/07/18 02:25:24;;;;;;;11.73;6.80;;;17.00;90.70;;;;;;5093650;28;20353;-80
2021/07/18 02:27:50;;;;;;;8.18;6.75;;;17.00;90.70;;;;;;5094035;28;20308;-80
2021/07/18 02:30:21;;;;;;;8.57;7.00;;;16.90;90.80;;;;;;5075720;28;20027;-78
2021/07/18 02:32:47;;;;;;;8.52;6.78;;;16.90;90.80;;;;;;5092144;28;20185;-78
2021/07/18 02:35:15;;;;;;;11.60;7.30;;;16.90;90.80;;;;;;5092781;28;20029;-79
2021/07/18 02:37:41;;;;;;;9.98;6.68;;;16.90;90.80;;;;;;5077197;28;20039;-77
2021/07/18 02:40:08;;;;;;;9.77;6.53;;;16.90;90.90;;;;;;5075649;28;20032;-79
2021/07/18 02:42:34;;;;;;;8.15;6.90;;;16.90;90.90;;;;;;5093926;28;20024;-78
2021/07/18 02:45:00;;;;;;;10.10;6.95;;;16.90;90.90;;;;;;5092502;28;20024;-79
2021/07/18 02:47:26;;;;;;;8.60;7.22;;;16.90;91.00;;;;;;5075691;28;20074;-83
2021/07/18 02:49:51;;;;;;;10.77;7.20;;;16.90;91.00;;;;;;5093920;28;20039;-77
2021/07/18 02:52:17;;;;;;;8.27;6.97;;;16.90;91.10;;;;;;5092144;28;20476;-77
2021/07/18 02:54:43;;;;;;;10.93;7.60;;;16.80;91.30;;;;;;5093125;28;20537;-77
2021/07/18 02:57:09;;;;;;;10.45;7.30;;;16.90;91.20;;;;;;5092088;28;20532;-77
2021/07/18 02:59:34;;;;;;;9.93;7.07;;;16.90;91.20;;;;;;5093749;28;20062;-77
2021/07/18 03:02:02;;;;;;;9.05;7.07;;;16.90;91.20;;;;;;5075467;28;20028;-77
2021/07/18 03:04:28;;;;;;;10.18;7.45;;;16.90;91.20;;;;;;5093294;28;20035;-86
2021/07/18 03:06:53;;;;;;;10.93;7.50;;;16.90;91.20;;;;;;5091852;28;20032;-77
2021/07/18 03:09:23;;;;;;;11.05;7.50;;;16.90;91.20;;;;;;5075887;28;20463;-77
2021/07/18 03:11:52;;;;;;;10.48;7.32;;;16.80;91.20;;;;;;5091894;28;20173;-78
2021/07/18 03:14:19;;;;;;;9.63;7.20;;;16.80;91.30;;;;;;5093072;28;20052;-76
2021/07/18 03:16:47;;;;;;;8.93;7.55;;;16.90;91.30;;;;;;5093408;28;20108;-77
2021/07/18 03:19:13;;;;;;;11.80;8.88;;;16.90;91.30;;;;;;5093661;28;20020;-76
2021/07/18 03:21:39;;;;;;;11.93;9.75;;;16.80;91.30;;;;;;5094119;28;20027;-77
2021/07/18 03:24:05;;;;;;;15.85;11.30;;;16.80;91.30;;;;;;5097241;28;20035;-78
2021/07/18 03:26:30;;;;;;;12.57;10.63;;;16.80;91.30;;;;;;5096662;28;20162;-82
2021/07/18 03:28:56;;;;;;;12.48;10.15;;;16.80;91.40;;;;;;5097357;28;20479;-78
2021/07/18 03:31:22;;;;;;;12.73;9.88;;;16.80;91.40;;;;;;5095367;28;20031;-78
2021/07/18 03:33:48;;;;;;;15.57;10.57;;;16.80;91.40;;;;;;5095683;28;20354;-78
2021/07/18 03:36:13;;;;;;;15.57;10.13;;;16.80;91.50;;;;;;5078623;28;20381;-77
2021/07/18 03:38:39;;;;;;;16.60;10.88;;;16.80;91.50;;;;;;5078224;28;20031;-76
2021/07/18 03:41:05;;;;;;;12.55;9.75;;;16.80;91.50;;;;;;5095865;28;20016;-77
2021/07/18 03:43:31;;;;;;;13.73;10.18;;;16.80;91.50;;;;;;5095736;28;20487;-78
2021/07/18 03:45:57;;;;;;;12.52;10.00;;;16.80;91.40;;;;;;5061619;28;20126;-77
2021/07/18 03:48:22;;;;;;;11.55;9.55;;;16.80;91.50;;;;;;5077814;28;20433;-76
2021/07/18 03:50:49;;;;;;;11.57;8.77;;;16.80;91.50;;;;;;5095066;28;20024;-78
2021/07/18 03:53:15;;;;;;;14.38;9.10;;;16.80;91.40;;;;;;5094802;28;20036;-78
2021/07/18 03:55:41;;;;;;;12.23;9.25;;;16.80;91.50;;;;;;5096247;28;20032;-78
2021/07/18 03:58:07;;;;;;;13.23;9.10;;;16.80;91.50;;;;;;5095156;28;20032;-77
2021/07/18 04:00:32;;;;;;;11.35;9.20;;;16.90;91.50;;;;;;5094843;28;20055;-78
2021/07/18 04:02:58;;;;;;;12.90;8.93;;;17.00;91.50;;;;;;5078015;28;20475;-79
2021/07/18 04:05:24;;;;;;;12.82;9.63;;;17.00;91.50;;;;;;5061177;28;20032;-78
2021/07/18 04:07:50;;;;;;;14.02;9.75;;;17.20;91.40;;;;;;5095650;28;20028;-77
2021/07/18 04:10:15;;;;;;;17.40;11.80;;;17.20;91.30;;;;;;5094478;28;20533;-77
2021/07/18 04:12:41;;;;;;;16.05;10.45;;;17.30;91.30;;;;;;5094372;28;20075;-79
2021/07/18 04:15:07;;;;;;;19.70;11.88;;;17.30;91.20;;;;;;5094746;28;20054;-78
2021/07/18 04:17:34;;;;;;;18.20;12.05;;;17.40;91.20;;;;;;5077775;28;20032;-78
2021/07/18 04:20:00;;;;;;;20.40;12.25;;;17.40;91.20;;;;;;5094621;28;20020;-80
2021/07/18 04:22:25;;;;;;;12.95;11.15;;;17.40;91.10;;;;;;5094458;28;20024;-77
2021/07/18 04:24:51;;;;;;;16.27;11.32;;;17.40;91.10;;;;;;5094384;28;20051;-77
2021/07/18 04:27:17;;;;;;;14.50;10.20;;;17.50;91.20;;;;;;5093927;28;20036;-77
2021/07/18 04:29:42;;;;;;;13.07;9.40;;;17.50;91.10;;;;;;5077251;28;20119;-77
2021/07/18 04:32:08;;;;;;;12.55;9.32;;;17.60;91.10;;;;;;5094185;28;20085;-77
2021/07/18 04:34:34;;;;;;;14.25;8.63;;;17.70;91.00;;;;;;5094043;28;20042;-79
2021/07/18 04:37:00;;;;;;;15.68;9.50;;;17.70;91.00;;;;;;5094407;28;20020;-78
2021/07/18 04:39:26;;;;;;;10.15;8.75;;;17.70;90.80;;;;;;5093875;28;20020;-78
2021/07/18 04:41:52;;;;;;;10.85;8.98;;;17.80;90.80;;;;;;5094115;28;20035;-77
2021/07/18 04:44:18;;;;;;;16.13;8.85;;;17.80;90.70;;;;;;5076875;28;20024;-77
2021/07/18 04:46:43;;;;;;;11.38;9.18;;;17.90;90.70;;;;;;5093733;28;20020;-78
2021/07/18 04:49:09;;;;;;;10.05;8.77;;;17.90;90.60;;;;;;5077034;28;20044;-76
2021/07/18 04:51:35;;;;;;;9.27;7.80;;;18.00;90.50;;;;;;5093561;28;20028;-77
2021/07/18 04:54:01;;;;;;;10.35;9.27;;;18.10;90.40;;;;;;5093798;28;20478;-78
2021/07/18 04:56:27;;;;;;;10.57;9.07;;;18.20;90.30;;;;;;5093698;28;20031;-78
2021/07/18 04:58:53;;;;;;;8.77;7.88;;;18.30;90.10;;;;;;5093350;28;20028;-78
2021/07/18 05:01:18;;;;;;;10.80;8.93;;;18.40;90.00;;;;;;5094135;28;20024;-78
2021/07/18 05:03:44;;;;;;;8.60;7.70;;;18.50;89.90;;;;;;5095705;28;20357;-82
2021/07/18 05:06:10;;;;;;;8.52;7.72;;;18.60;89.50;;;;;;5093787;28;20024;-78
2021/07/18 05:08:35;;;;;;;9.40;7.88;;;18.70;89.10;;;;;;5093326;28;20027;-78
2021/07/18 05:11:03;;;;;;;9.23;7.78;;;18.70;88.70;;;;;;5092490;28;20512;-78
2021/07/18 05:13:29;;;;;;;10.02;8.20;;;18.80;88.40;;;;;;5093239;28;20135;-78
2021/07/18 05:15:54;;;;;;;8.63;7.72;;;18.80;88.10;;;;;;5076646;28;20103;-76
2021/07/18 05:18:20;;;;;;;8.95;7.95;;;18.80;88.10;;;;;;5076528;28;20036;-77
2021/07/18 05:20:46;;;;;;;11.07;8.30;;;18.90;88.00;;;;;;5076112;28;20020;-81
2021/07/18 05:23:12;;;;;;;8.65;7.78;;;18.90;87.90;;;;;;5093170;28;20028;-77
2021/07/18 05:25:38;;;;;;;8.30;7.50;;;19.00;87.70;;;;;;5094605;28;20066;-77
2021/07/18 05:28:07;;;;;;;8.63;7.55;;;19.00;87.40;;;;;;5093387;28;20508;-77
2021/07/18 05:30:33;;;;;;;9.75;8.80;;;19.20;87.10;;;;;;5076423;28;20031;-77
2021/07/18 05:32:58;;;;;;;8.77;7.88;;;19.30;86.70;;;;;;5092994;28;20047;-78
2021/07/18 05:35:24;;;;;;;9.60;8.43;;;19.50;86.20;;;;;;5093987;28;20024;-78
2021/07/18 05:37:50;;;;;;;11.48;9.85;;;19.80;85.40;;;;;;5093610;28;20452;-79
2021/07/18 05:40:16;;;;;;;12.68;11.35;;;20.10;84.60;;;;;;5093081;28;20028;-78
2021/07/18 05:42:43;;;;;;;13.13;9.45;;;20.50;83.40;;;;;;5094098;28;20511;-79
2021/07/18 05:45:09;;;;;;;9.38;8.45;;;21.10;82.00;;;;;;5092755;28;20119;-78
2021/07/18 05:47:36;;;;;;;8.82;8.02;;;22.20;79.30;;;;;;5094235;28;20035;-79
2021/07/18 05:50:04;;;;;;;7.90;7.10;;;23.80;75.20;;;;;;5094074;28;20020;-79
2021/07/18 05:52:30;;;;;;;8.77;7.10;;;25.30;70.70;;;;;;5093839;28;20032;-78
2021/07/18 05:54:56;;;;;;;6.72;6.13;;;26.40;67.00;;;;;;5092951;28;20380;-78
2021/07/18 05:57:22;;;;;;;7.20;6.50;;;27.20;64.60;;;;;;5092863;28;20024;-78
2021/07/18 05:59:48;;;;;;;6.45;5.93;;;27.80;62.30;;;;;;5093630;28;20531;-83
2021/07/18 06:02:15;;;;;;;6.32;5.82;;;28.20;60.60;;;;;;5094306;28;20016;-79
2021/07/18 06:04:41;;;;;;;6.25;5.68;;;28.40;59.40;;;;;;5094169;28;20150;-79
2021/07/18 06:07:07;;;;;;;6.10;5.60;;;28.40;59.00;;;;;;5076161;28;20188;-80
2021/07/18 06:09:33;;;;;;;5.65;5.25;;;28.40;57.90;;;;;;5094063;28;20126;-79
2021/07/18 06:11:59;;;;;;;6.45;5.95;;;27.80;58.50;;;;;;5075515;28;20048;-79
2021/07/18 06:14:25;;;;;;;6.68;6.18;;;27.10;59.90;;;;;;5075775;28;20040;-79
2021/07/18 06:16:51;;;;;;;7.32;6.63;;;26.60;61.00;;;;;;5094219;28;20024;-86
2021/07/18 06:19:18;;;;;;;7.32;6.72;;;26.60;61.50;;;;;;5093904;28;20369;-79
2021/07/18 06:21:44;;;;;;;7.10;6.43;;;26.80;61.50;;;;;;5092753;28;20066;-79
2021/07/18 06:24:10;;;;;;;6.28;5.78;;;27.60;60.50;;;;;;5092519;28;20032;-79
2021/07/18 06:26:35;;;;;;;6.50;5.90;;;28.50;58.60;;;;;;5093437;28;20023;-79
2021/07/18 06:29:01;;;;;;;6.18;5.68;;;29.20;56.30;;;;;;5075845;28;20122;-79
2021/07/18 06:31:27;;;;;;;4.78;4.38;;;29.70;55.00;;;;;;5092684;28;20033;-78
2021/07/18 06:33:53;;;;;;;5.55;5.15;;;30.10;54.10;;;;;;5075898;28;20384;-81
2021/07/18 06:36:19;;;;;;;5.63;5.13;;;30.50;52.70;;;;;;5092618;28;20027;-77
2021/07/18 06:38:45;;;;;;;5.40;4.90;;;30.70;51.70;;;;;;5080167;28;20047;-79
2021/07/18 06:41:11;;;;;;;5.05;4.55;;;30.70;51.90;;;;;;5093604;28;20024;-77
2021/07/18 06:43:37;;;;;;;7.78;5.13;;;31.00;51.10;;;;;;5094260;28;20476;-77
2021/07/18 06:46:02;;;;;;;6.18;5.68;;;31.30;50.60;;;;;;5094180;28;20036;-77
2021/07/18 06:48:28;;;;;;;5.55;5.07;;;31.40;50.20;;;;;;5093787;28;20105;-76
2021/07/18 06:50:55;;;;;;;5.38;4.95;;;31.60;49.20;;;;;;5092869;28;20115;-81
2021/07/18 06:53:21;;;;;;;5.05;4.55;;;31.80;49.10;;;;;;5094473;28;20032;-78
2021/07/18 06:55:47;;;;;;;6.18;3.88;;;32.10;47.80;;;;;;5097450;28;20553;-77
2021/07/18 06:58:13;;;;;;;5.18;3.83;;;32.30;47.60;;;;;;5096633;28;20430;-77
2021/07/18 07:00:39;;;;;;;4.32;4.00;;;32.30;46.90;;;;;;5096890;28;20501;-77
2021/07/18 07:03:04;;;;;;;4.70;3.85;;;32.40;47.60;;;;;;5096356;28;20055;-76
2021/07/18 07:05:30;;;;;;;3.55;3.25;;;32.40;46.90;;;;;;5097196;28;20028;-76
2021/07/18 07:07:55;;;;;;;3.47;3.28;;;32.60;46.90;;;;;;5096714;28;20115;-83
2021/07/18 07:10:21;;;;;;;3.75;3.25;;;32.80;46.30;;;;;;5097214;28;20059;-75
2021/07/18 07:12:48;;;;;;;4.85;3.47;;;33.00;46.40;;;;;;5095709;28;20059;-76
2021/07/18 07:15:14;;;;;;;4.78;3.22;;;32.90;45.30;;;;;;5096270;28;20020;-77
2021/07/18 07:17:40;;;;;;;5.38;4.97;;;33.00;45.80;;;;;;5097944;28;20031;-76
2021/07/18 07:20:08;;;;;;;4.60;4.30;;;33.10;45.60;;;;;;5096378;28;20490;-77
2021/07/18 07:22:35;;;;;;;4.70;3.95;;;33.20;45.20;;;;;;5096650;28;20103;-78
2021/07/18 07:25:03;;;;;;;2.92;2.30;;;33.20;44.70;;;;;;5081162;28;20028;-79
2021/07/18 07:27:29;;;;;;;2.55;2.05;;;33.10;44.30;;;;;;5081993;28;20031;-77
2021/07/18 07:29:54;;;;;;;2.28;1.63;;;33.10;44.60;;;;;;5082034;28;20418;-76
2021/07/18 07:32:20;;;;;;;2.65;1.70;;;33.30;44.30;;;;;;5100879;28;20028;-76
2021/07/18 07:34:46;;;;;;;3.20;1.42;;;33.50;44.70;;;;;;5100663;28;20519;-77
2021/07/18 07:37:11;;;;;;;2.10;1.65;;;33.50;44.30;;;;;;5080033;28;20024;-76
2021/07/18 07:39:40;;;;;;;1.90;1.40;;;33.70;44.10;;;;;;5100123;28;20031;-77
2021/07/18 07:42:06;;;;;;;2.65;1.80;;;33.70;44.00;;;;;;5103486;28;20066;-79
2021/07/18 07:44:32;;;;;;;4.70;3.70;;;33.80;43.00;;;;;;5104302;28;20028;-78
2021/07/18 07:46:59;;;;;;;6.85;6.25;;;33.90;42.80;;;;;;5104813;28;20028;-76
2021/07/18 07:49:24;;;;;;;4.40;3.33;;;33.90;42.20;;;;;;5105353;28;20028;-77
2021/07/18 07:51:50;;;;;;;3.13;2.67;;;33.90;42.80;;;;;;5088589;28;20083;-78
2021/07/18 07:54:16;;;;;;;2.08;1.27;;;33.80;43.40;;;;;;5105997;28;20035;-78
2021/07/18 07:56:42;;;;;;;8.13;7.43;;;33.80;43.40;;;;;;5099312;28;20036;-79
2021/07/18 07:59:07;;;;;;;1.70;0.90;;;34.00;43.70;;;;;;5096307;28;20020;-78
2021/07/18 08:01:33;;;;;;;1.40;0.75;;;34.10;42.40;;;;;;5096480;28;20514;-78
2021/07/18 08:03:59;;;;;;;1.35;0.82;;;34.20;41.30;;;;;;5095703;28;20368;-76
2021/07/18 08:06:25;;;;;;;1.77;1.10;;;34.20;42.00;;;;;;5095502;28;20081;-77
2021/07/18 08:08:51;;;;;;;2.63;1.60;;;34.30;42.30;;;;;;5095020;28;20032;-77
2021/07/18 08:11:16;;;;;;;2.10;0.90;;;34.30;42.00;;;;;;5095839;28;20123;-76
2021/07/18 08:13:43;;;;;;;1.50;0.80;;;34.40;42.50;;;;;;5077799;28;20044;-77
2021/07/18 08:16:10;;;;;;;1.73;1.10;;;34.60;41.40;;;;;;5078605;28;20127;-78
2021/07/18 08:18:37;;;;;;;2.63;1.80;;;34.50;42.40;;;;;;5095066;28;20107;-77
2021/07/18 08:21:03;;;;;;;2.45;1.20;;;34.60;42.10;;;;;;5094957;28;20073;-79
2021/07/18 08:23:30;;;;;;;1.65;0.95;;;34.60;41.90;;;;;;5096625;28;20476;-77
2021/07/18 08:25:56;;;;;;;2.00;0.98;;;34.60;42.30;;;;;;5096287;28;20016;-78
2021/07/18 08:28:24;;;;;;;2.25;0.80;;;34.70;43.30;;;;;;5080497;28;20028;-77
2021/07/18 08:30:50;;;;;;;3.03;0.60;;;34.70;42.80;;;;;;5083340;28;20063;-80
2021/07/18 08:33:16;;;;;;;1.20;0.60;;;34.80;42.20;;;;;;5101198;28;20024;-79
2021/07/18 08:35:42;;;;;;;1.27;0.70;;;35.00;41.40;;;;;;5068442;28;20119;-77
2021/07/18 08:38:08;;;;;;;2.65;0.90;;;35.20;42.20;;;;;;5086148;28;20029;-81
2021/07/18 08:40:36;;;;;;;1.27;0.90;;;35.20;40.90;;;;;;5109729;28;20032;-77
2021/07/18 08:43:03;;;;;;;2.33;0.80;;;34.50;42.20;;;;;;5111208;28;20028;-78
2021/07/18 08:45:29;;;;;;;1.52;0.80;;;34.40;42.70;;;;;;5113492;28;20024;-78
2021/07/18 08:47:55;;;;;;;2.30;0.70;;;34.60;41.70;;;;;;5099023;28;20012;-78
2021/07/18 08:50:21;;;;;;;1.45;0.60;;;34.80;42.30;;;;;;5117620;28;20012;-86
2021/07/18 08:52:52;;;;;;;1.65;0.68;;;35.00;42.20;;;;;;5117345;28;20060;-78
2021/07/18 08:55:18;;;;;;;0.98;0.50;;;35.10;41.30;;;;;;5116724;28;20028;-84
2021/07/18 08:57:44;;;;;;;1.23;0.73;;;35.30;41.20;;;;;;5114767;28;20020;-85
2021/07/18 09:00:10;;;;;;;1.33;0.60;;;35.30;40.80;;;;;;5114830;28;20016;-89
2021/07/18 09:02:39;;;;;;;1.80;0.70;;;35.50;41.10;;;;;;5115492;28;20043;-78
2021/07/18 09:05:05;;;;;;;1.55;0.60;;;35.80;39.40;;;;;;5108495;28;20038;-76
2021/07/18 09:07:43;;;;;;;1.60;0.68;;;35.70;39.80;;;;;;5099180;28;20099;-78
2021/07/18 09:10:10;;;;;;;1.13;0.55;;;35.50;40.00;;;;;;5097874;28;20029;-79
2021/07/18 09:12:35;;;;;;;3.00;0.82;;;35.50;39.80;;;;;;5098051;28;20084;-78
2021/07/18 09:15:02;;;;;;;1.35;0.70;;;35.50;39.80;;;;;;5096175;28;20440;-79
2021/07/18 09:17:36;;;;;;;1.48;0.77;;;35.40;40.80;;;;;;5080332;28;20039;-78
2021/07/18 09:20:17;;;;;;;1.05;0.70;;;35.30;41.00;;;;;;5080986;28;20030;-78
2021/07/18 09:22:44;;;;;;;1.60;0.68;;;35.40;41.00;;;;;;5080615;28;20093;-76
2021/07/18 09:25:10;;;;;;;1.52;0.60;;;35.30;40.30;;;;;;5096073;28;20024;-79
2021/07/18 09:27:36;;;;;;;1.63;0.70;;;35.30;41.10;;;;;;5094220;28;20028;-77
2021/07/18 09:30:05;;;;;;;1.08;0.77;;;35.20;41.10;;;;;;5093818;28;20157;-79
2021/07/18 09:32:34;;;;;;;1.52;0.80;;;35.40;40.90;;;;;;5094326;28;20478;-77
2021/07/18 09:35:05;;;;;;;2.90;0.80;;;35.50;40.50;;;;;;5094237;28;20448;-82
2021/07/18 09:37:36;;;;;;;1.83;1.00;;;35.70;40.90;;;;;;5093896;28;20023;-79
2021/07/18 09:40:11;;;;;;;2.03;0.80;;;35.60;41.00;;;;;;5094170;28;20135;-77
2021/07/18 09:42:46;;;;;;;2.00;1.52;;;35.50;41.60;;;;;;5093771;28;20060;-77
2021/07/18 09:45:13;;;;;;;1.33;1.05;;;35.70;41.50;;;;;;5094542;28;20028;-81
2021/07/18 09:48:02;;;;;;;2.35;0.90;;;35.50;41.50;;;;;;5093828;28;20020;-77
2021/07/18 09:50:32;;;;;;;2.85;0.88;;;35.60;42.50;;;;;;5094158;28;20020;-77
2021/07/18 09:53:17;;;;;;;1.85;1.20;;;35.70;41.60;;;;;;5093216;28;20032;-76
2021/07/18 09:56:06;;;;;;;2.22;1.20;;;35.70;41.50;;;;;;5095325;28;20028;-75
2021/07/18 09:58:32;;;;;;;2.10;1.17;;;35.80;41.30;;;;;;5095082;28;20040;-76
2021/07/18 10:00:59;;;;;;;3.35;2.00;;;35.90;41.30;;;;;;5096933;28;20028;-77
2021/07/18 10:03:27;;;;;;;1.55;1.00;;;36.10;41.10;;;;;;5095983;28;20052;-76
2021/07/18 10:06:25;;;;;;;1.85;0.93;;;35.80;41.60;;;;;;5094055;28;20117;-78
2021/07/18 10:08:53;;;;;;;3.72;0.88;;;35.80;41.70;;;;;;5095317;28;20047;-78
2021/07/18 10:11:30;;;;;;;1.85;0.95;;;36.00;41.70;;;;;;5097829;28;20027;-80
2021/07/18 10:13:57;;;;;;;1.52;1.00;;;36.20;41.40;;;;;;5079402;28;20036;-76
2021/07/18 10:16:25;;;;;;;2.53;1.00;;;36.30;41.10;;;;;;5095603;28;20033;-80
2021/07/18 10:18:52;;;;;;;2.53;1.00;;;36.40;40.60;;;;;;5096351;28;20021;-78
2021/07/18 10:21:21;;;;;;;2.75;1.00;;;36.20;40.80;;;;;;5097005;28;20020;-81
2021/07/18 10:23:49;;;;;;;2.65;1.20;;;36.40;40.60;;;;;;5095781;28;20036;-79
2021/07/18 10:26:20;;;;;;;2.35;0.80;;;36.40;40.00;;;;;;5095633;28;20136;-78
2021/07/18 10:28:47;;;;;;;3.65;1.33;;;36.40;40.30;;;;;;5096236;28;20089;-78
2021/07/18 10:31:31;;;;;;;3.25;1.23;;;36.30;40.00;;;;;;5066068;28;20020;-76
2021/07/18 10:34:00;;;;;;;2.10;1.10;;;36.30;40.50;;;;;;5101874;28;20035;-77
2021/07/18 10:36:26;;;;;;;1.45;0.80;;;36.30;40.90;;;;;;5103435;28;20085;-77
2021/07/18 10:38:52;;;;;;;3.25;0.73;;;36.10;40.10;;;;;;5102446;28;20032;-74
2021/07/18 10:41:44;;;;;;;2.20;0.93;;;35.90;40.40;;;;;;5084445;28;20152;-78
2021/07/18 10:44:15;;;;;;;2.17;1.25;;;35.90;40.10;;;;;;5102307;28;20035;-76
2021/07/18 10:46:41;;;;;;;3.10;1.13;;;35.70;40.80;;;;;;5084516;28;20072;-77
2021/07/18 10:49:13;;;;;;;3.00;1.50;;;35.70;41.40;;;;;;5105312;28;20060;-78
2021/07/18 10:51:43;;;;;;;2.10;1.00;;;35.70;41.00;;;;;;5115349;28;20023;-77
2021/07/18 10:54:10;;;;;;;3.03;1.30;;;35.70;41.40;;;;;;5118988;28;20515;-76
2021/07/18 10:56:45;;;;;;;3.25;1.30;;;35.70;40.90;;;;;;5120692;28;20080;-78
2021/07/18 10:59:40;;;;;;;2.40;0.98;;;35.70;41.20;;;;;;5120895;28;20080;-76
2021/07/18 11:02:11;;;;;;;1.92;1.13;;;35.70;41.50;;;;;;5112830;28;20036;-76
2021/07/18 11:04:41;;;;;;;2.15;1.17;;;35.90;41.40;;;;;;5099754;28;20020;-78
2021/07/18 11:07:22;;;;;;;2.25;1.70;;;35.90;40.80;;;;;;5120434;28;20027;-77
2021/07/18 11:09:50;;;;;;;2.53;1.15;;;35.70;41.50;;;;;;5119462;28;20036;-76
2021/07/18 11:12:36;;;;;;;2.55;1.08;;;35.60;41.90;;;;;;5116908;28;20040;-75
2021/07/18 11:15:34;;;;;;;3.15;1.33;;;35.60;41.80;;;;;;5102119;28;20020;-77
2021/07/18 11:18:29;;;;;;;2.05;1.08;;;35.40;41.70;;;;;;5100312;28;20043;-76
2021/07/18 11:20:56;;;;;;;2.13;1.00;;;35.20;41.80;;;;;;5099143;28;20051;-76
2021/07/18 11:23:42;;;;;;;2.05;0.95;;;35.20;42.40;;;;;;5100664;28;20476;-81
2021/07/18 11:26:11;;;;;;;3.45;1.23;;;35.10;42.50;;;;;;5102258;28;20127;-76
2021/07/18 11:31:13;;;;;;;3.30;0.80;;;35.20;42.30;;;;;;5099537;28;20071;-79
2021/07/18 11:33:44;;;;;;;3.47;1.00;;;35.20;41.40;;;;;;5098607;28;20375;-78
2021/07/18 11:36:15;;;;;;;1.60;0.80;;;35.10;41.60;;;;;;5098057;28;20074;-75
2021/07/18 11:38:40;;;;;;;1.83;0.90;;;35.10;41.70;;;;;;5096889;28;20035;-76
2021/07/18 11:41:17;;;;;;;1.35;0.75;;;35.00;41.50;;;;;;5077224;28;20035;-77
2021/07/18 11:43:47;;;;;;;3.05;0.85;;;34.90;42.00;;;;;;5095368;28;20375;-76
2021/07/18 11:46:14;;;;;;;2.50;1.08;;;35.00;42.10;;;;;;5096312;28;20040;-76
2021/07/18 11:48:41;;;;;;;2.15;1.00;;;35.10;41.20;;;;;;5096151;28;20035;-77
2021/07/18 11:51:18;;;;;;;1.75;0.90;;;34.80;41.50;;;;;;5098625;28;20063;-75
2021/07/18 11:53:52;;;;;;;2.88;1.50;;;34.80;41.70;;;;;;5097460;28;20047;-75
2021/07/18 11:56:20;;;;;;;2.55;0.98;;;34.50;41.60;;;;;;5098575;28;20504;-75
2021/07/18 11:58:46;;;;;;;2.88;1.00;;;34.50;42.70;;;;;;5096065;28;20028;-76
2021/07/18 12:01:11;;;;;;;2.60;1.00;;;34.60;42.20;;;;;;5094688;28;20031;-75
2021/07/18 12:03:37;;;;;;;2.20;0.80;;;34.70;42.50;;;;;;5095969;28;20124;-76
2021/07/18 12:06:03;;;;;;;1.50;0.82;;;34.90;43.00;;;;;;5095997;28;20145;-74
2021/07/18 12:08:34;;;;;;;3.35;0.90;;;35.00;42.80;;;;;;5095429;28;20028;-81
2021/07/18 12:11:03;;;;;;;2.63;1.10;;;34.90;42.10;;;;;;5096404;28;20028;-74
2021/07/18 12:13:37;;;;;;;2.08;1.02;;;34.90;42.00;;;;;;5093843;28;20066;-75
2021/07/18 12:16:04;;;;;;;2.05;0.95;;;34.90;42.50;;;;;;5094365;28;20529;-75
2021/07/18 12:18:30;;;;;;;1.77;0.70;;;35.00;41.80;;;;;;5078048;28;20020;-77
2021/07/18 12:21:26;;;;;;;2.45;0.70;;;35.10;41.30;;;;;;5095149;28;20036;-74
2021/07/18 12:24:11;;;;;;;5.15;0.80;;;35.20;41.40;;;;;;5094217;28;20437;-75
2021/07/18 12:26:37;;;;;;;2.47;0.93;;;35.00;40.50;;;;;;5095978;28;20131;-75
2021/07/18 12:29:04;;;;;;;1.70;0.88;;;34.50;42.20;;;;;;5094862;28;20029;-75
2021/07/18 12:31:31;;;;;;;2.72;1.00;;;34.40;42.20;;;;;;5095266;28;20024;-75
2021/07/18 12:33:57;;;;;;;1.88;1.00;;;34.20;42.20;;;;;;5093989;28;20090;-74
2021/07/18 12:36:22;;;;;;;1.65;0.80;;;34.00;43.10;;;;;;5077105;28;20407;-74
2021/07/18 12:38:48;;;;;;;2.00;0.95;;;34.00;43.10;;;;;;5095364;28;20085;-74
2021/07/18 12:41:14;;;;;;;2.28;1.33;;;34.10;42.80;;;;;;5077923;28;20036;-74
2021/07/18 12:43:40;;;;;;;1.92;1.08;;;34.20;43.50;;;;;;5095017;28;20024;-75
2021/07/18 12:46:08;;;;;;;2.45;1.05;;;34.30;43.10;;;;;;5076804;28;20449;-76
2021/07/18 12:48:35;;;;;;;3.03;1.00;;;34.20;43.10;;;;;;5076833;28;20138;-79